Terminal Aerodrome Forecast
Issued by NWS

Home | Current Version | Previous Version | Graphics & Text | Print | Product List | Glossary On
Versions: 1 2 3 4 5 6 7 8 9 10 11 12 13 14 15 16 17
000
FTUS41 KCLE 310500
TAFFDY
TAF
KFDY 310540Z 3106/0106 21010KT P6SM SCT030 BKN120
     FM310800 22010KT P6SM SCT012 BKN030
     FM311000 23010KT 4SM BR SCT008 OVC012
     FM311400 23010KT P6SM SCT008 OVC012
     FM311600 24010KT P6SM BKN020
     FM312000 24010KT P6SM BKN035=

USA.gov is the U.S. government's official web portal to all federal, state and local government web resources and services.